createdAt,value
2018-09-08T00:02:33.042Z,1.60
2018-09-08T00:05:01.437Z,1.50
2018-09-08T00:07:35.251Z,1.43
2018-09-08T00:10:04.320Z,1.23
2018-09-08T00:12:33.441Z,1.63
2018-09-08T00:15:08.331Z,1.40
2018-09-08T00:17:42.520Z,1.20
2018-09-08T00:20:16.316Z,1.40
2018-09-08T00:22:50.330Z,1.30
2018-09-08T00:25:25.646Z,1.50
2018-09-08T00:31:24.062Z,1.83
2018-09-08T00:33:57.005Z,1.43
2018-09-08T00:36:29.808Z,1.53
2018-09-08T00:39:01.853Z,1.70
2018-09-08T00:41:31.214Z,1.50
2018-09-08T00:43:59.673Z,1.40
2018-09-08T00:46:29.159Z,1.70
2018-09-08T00:48:58.549Z,1.77
2018-09-08T00:51:26.905Z,1.57
2018-09-08T00:53:59.430Z,1.43
2018-09-08T00:56:31.122Z,1.63
2018-09-08T00:59:04.101Z,1.50
2018-09-08T01:01:34.496Z,1.57
2018-09-08T01:04:02.813Z,1.37
2018-09-08T01:06:31.755Z,1.60
2018-09-08T01:08:59.932Z,1.60
2018-09-08T01:11:28.245Z,1.73
2018-09-08T01:13:56.239Z,1.37
2018-09-08T01:16:24.995Z,1.70
2018-09-08T01:18:53.748Z,1.70
2018-09-08T01:21:22.034Z,1.37
2018-09-08T01:23:53.050Z,1.60
2018-09-08T01:29:21.586Z,1.77
2018-09-08T01:31:49.704Z,1.70
2018-09-08T01:34:17.715Z,1.80
2018-09-08T01:36:45.935Z,1.80
2018-09-08T01:39:14.158Z,1.60
2018-09-08T01:41:42.128Z,1.73
2018-09-08T01:44:10.106Z,1.80
2018-09-08T01:46:38.004Z,1.90
2018-09-08T01:49:06.021Z,2.07
2018-09-08T01:51:34.041Z,2.00
2018-09-08T01:54:03.088Z,1.80
2018-09-08T01:56:31.192Z,2.03
2018-09-08T01:58:59.017Z,2.13
2018-09-08T02:01:27.860Z,1.73
2018-09-08T02:03:56.172Z,1.90
2018-09-08T02:06:24.346Z,1.87
2018-09-08T02:08:53.318Z,1.87
2018-09-08T02:11:21.490Z,2.20
2018-09-08T02:13:49.759Z,1.60
2018-09-08T02:16:18.645Z,1.90
2018-09-08T02:18:47.308Z,1.70
2018-09-08T02:21:16.544Z,1.87
2018-09-08T02:23:46.818Z,1.63
2018-09-08T02:26:14.951Z,1.87
2018-09-08T02:28:43.013Z,2.10
2018-09-08T02:31:11.899Z,2.30
2018-09-08T02:33:40.658Z,2.23
2018-09-08T02:36:08.733Z,1.80
2018-09-08T02:38:38.534Z,2.23
2018-09-08T02:41:06.827Z,2.37
2018-09-08T02:43:37.363Z,2.23
2018-09-08T02:46:05.766Z,2.50
2018-09-08T02:48:34.029Z,2.17
2018-09-08T02:51:00.891Z,2.50
2018-09-08T02:53:27.615Z,2.50
2018-09-08T02:55:54.421Z,2.40
2018-09-08T02:58:21.339Z,2.93
2018-09-08T03:01:09.653Z,2.80
2018-09-08T03:03:36.584Z,2.43
2018-09-08T03:06:03.642Z,2.93
2018-09-08T03:08:30.323Z,2.77
2018-09-08T03:10:59.486Z,2.80
2018-09-08T03:13:26.504Z,3.13
2018-09-08T03:15:53.476Z,3.10
2018-09-08T03:18:20.122Z,2.87
2018-09-08T03:20:48.186Z,2.93
2018-09-08T03:23:14.873Z,3.30
2018-09-08T03:25:41.591Z,3.30
2018-09-08T03:28:08.336Z,3.10
2018-09-08T03:30:36.231Z,2.97
2018-09-08T03:33:02.975Z,3.53
2018-09-08T03:35:29.807Z,3.50
2018-09-08T03:37:57.512Z,3.63
2018-09-08T03:40:25.114Z,3.70
2018-09-08T03:42:51.785Z,3.80
2018-09-08T03:45:18.646Z,4.20
2018-09-08T03:47:45.395Z,3.93
2018-09-08T03:50:13.162Z,4.00
2018-09-08T03:52:39.922Z,3.60
2018-09-08T03:55:06.653Z,4.47
2018-09-08T03:57:33.507Z,3.70
2018-09-08T04:00:01.251Z,4.00
2018-09-08T04:02:27.959Z,4.27
2018-09-08T04:04:55.924Z,4.50
2018-09-08T04:07:24.236Z,4.70
2018-09-08T04:09:54.600Z,4.60
2018-09-08T04:12:22.602Z,5.13
2018-09-08T04:14:50.727Z,5.00
2018-09-08T04:17:18.916Z,5.33
2018-09-08T04:19:47.346Z,5.30
2018-09-08T04:22:19.562Z,4.90
2018-09-08T04:24:47.725Z,5.00
2018-09-08T04:27:15.867Z,4.80
2018-09-08T04:29:44.159Z,5.33
2018-09-08T04:32:12.402Z,5.43
2018-09-08T04:34:40.481Z,5.67
2018-09-08T04:37:09.074Z,5.87
2018-09-08T04:39:37.273Z,5.63
2018-09-08T04:42:07.673Z,6.03
2018-09-08T04:44:37.399Z,5.83
2018-09-08T04:47:06.870Z,4.97
2018-09-08T04:49:35.137Z,5.57
2018-09-08T04:52:03.525Z,5.80
2018-09-08T04:54:31.744Z,6.30
2018-09-08T04:57:00.050Z,5.67
2018-09-08T04:59:28.890Z,6.23
2018-09-08T05:02:08.329Z,6.30
2018-09-08T05:04:36.517Z,5.50
2018-09-08T05:07:04.689Z,5.87
2018-09-08T05:09:36.887Z,6.33
2018-09-08T05:12:05.625Z,6.33
2018-09-08T05:14:34.425Z,6.47
2018-09-08T05:17:02.806Z,5.87
2018-09-08T05:19:30.948Z,5.93
2018-09-08T05:22:01.202Z,6.43
2018-09-08T05:24:29.543Z,6.10
2018-09-08T05:26:57.658Z,6.47
2018-09-08T05:29:26.136Z,6.23
2018-09-08T05:31:54.124Z,6.13
2018-09-08T05:34:22.682Z,5.93
2018-09-08T05:36:51.779Z,5.40
2018-09-08T05:39:20.175Z,6.50
2018-09-08T05:41:48.523Z,5.90
2018-09-08T05:44:17.935Z,5.77
2018-09-08T05:46:46.134Z,5.70
2018-09-08T05:49:16.314Z,6.43
2018-09-08T05:54:47.508Z,5.97
2018-09-08T05:57:15.963Z,5.10
2018-09-08T05:59:44.145Z,4.30
2018-09-08T06:02:29.273Z,4.50
2018-09-08T06:05:01.665Z,4.00
2018-09-08T06:13:51.348Z,3.83
2018-09-08T06:16:33.782Z,4.00
2018-09-08T08:18:40.232Z,4.00
2018-09-08T09:30:56.373Z,2.63
2018-09-08T09:33:46.053Z,3.40
2018-09-08T09:36:34.199Z,2.70
2018-09-08T21:51:13.671Z,3.70
2018-09-08T21:53:41.653Z,3.73
2018-09-08T22:10:46.776Z,3.70
2018-09-08T22:13:15.642Z,3.47
2018-09-08T22:15:43.362Z,4.20
2018-09-08T22:18:11.514Z,3.87
2018-09-08T22:20:39.485Z,3.60
2018-09-08T22:23:07.450Z,3.70
2018-09-08T22:25:35.488Z,4.63
2018-09-08T22:28:04.017Z,4.33
2018-09-08T22:30:32.021Z,4.03
2018-09-08T22:33:00.989Z,3.90
2018-09-08T22:35:29.069Z,3.73
2018-09-08T22:37:57.532Z,4.13
2018-09-08T22:40:26.186Z,3.90
2018-09-08T22:42:54.619Z,4.37
2018-09-08T22:45:23.286Z,4.05
2018-09-08T22:48:02.800Z,4.17
2018-09-08T22:50:30.981Z,4.40
2018-09-08T22:53:02.328Z,3.93
2018-09-08T22:55:30.491Z,4.93
2018-09-08T22:57:58.534Z,4.50
2018-09-08T23:00:27.759Z,4.70
2018-09-08T23:02:56.710Z,4.93
2018-09-08T23:05:24.452Z,4.63
2018-09-08T23:07:52.224Z,4.80
2018-09-08T23:10:20.044Z,4.60
2018-09-08T23:15:41.111Z,5.30
2018-09-08T23:18:08.933Z,5.08
2018-09-08T23:20:36.760Z,5.30
2018-09-08T23:23:04.833Z,4.93
2018-09-08T23:25:32.714Z,4.87
2018-09-08T23:28:00.482Z,4.77
2018-09-08T23:30:28.299Z,5.13
2018-09-08T23:32:56.036Z,5.90
2018-09-08T23:35:24.418Z,5.60
2018-09-08T23:37:52.339Z,5.07
2018-09-08T23:40:20.236Z,5.40
2018-09-08T23:42:47.979Z,5.70
2018-09-08T23:45:15.812Z,5.80
2018-09-08T23:47:43.673Z,5.50
2018-09-08T23:50:11.544Z,5.53
2018-09-08T23:52:39.928Z,6.03
2018-09-08T23:55:08.728Z,5.93
2018-09-08T23:57:36.669Z,6.57
